sensor_id;sensor_type;location;lat;lon;timestamp;pressure;altitude;pressure_sealevel;temperature;humidity
75555;BME280;66087;53.126;17.960;2023-04-25T00:02:21;99565.77;;;11.27;82.11
75555;BME280;66087;53.126;17.960;2023-04-25T00:04:49;99562.48;;;11.25;81.95
75555;BME280;66087;53.126;17.960;2023-04-25T00:07:18;99561.20;;;11.24;82.00
75555;BME280;66087;53.126;17.960;2023-04-25T00:09:44;99561.94;;;11.23;81.91
75555;BME280;66087;53.126;17.960;2023-04-25T00:12:10;99564.02;;;11.20;81.84
75555;BME280;66087;53.126;17.960;2023-04-25T00:14:36;99563.84;;;11.19;81.61
75555;BME280;66087;53.126;17.960;2023-04-25T00:17:02;99563.86;;;11.16;81.56
75555;BME280;66087;53.126;17.960;2023-04-25T00:19:29;99563.09;;;11.11;81.31
75555;BME280;66087;53.126;17.960;2023-04-25T00:21:55;99566.28;;;11.06;81.13
75555;BME280;66087;53.126;17.960;2023-04-25T00:24:21;99564.84;;;11.05;81.02
75555;BME280;66087;53.126;17.960;2023-04-25T00:26:47;99569.15;;;11.04;80.66
75555;BME280;66087;53.126;17.960;2023-04-25T00:29:14;99570.99;;;11.02;80.57
75555;BME280;66087;53.126;17.960;2023-04-25T00:31:40;99573.35;;;10.99;80.09
75555;BME280;66087;53.126;17.960;2023-04-25T00:34:06;99574.05;;;10.94;80.15
75555;BME280;66087;53.126;17.960;2023-04-25T00:36:36;99575.30;;;10.89;80.04
75555;BME280;66087;53.126;17.960;2023-04-25T00:39:02;99578.13;;;10.83;79.94
75555;BME280;66087;53.126;17.960;2023-04-25T00:41:30;99575.94;;;10.78;79.27
75555;BME280;66087;53.126;17.960;2023-04-25T00:43:56;99584.35;;;10.75;78.94
75555;BME280;66087;53.126;17.960;2023-04-25T00:46:24;99583.70;;;10.71;78.57
75555;BME280;66087;53.126;17.960;2023-04-25T00:48:51;99586.77;;;10.67;78.84
75555;BME280;66087;53.126;17.960;2023-04-25T00:51:20;99586.79;;;10.67;79.02
75555;BME280;66087;53.126;17.960;2023-04-25T00:53:49;99590.74;;;10.64;79.11
75555;BME280;66087;53.126;17.960;2023-04-25T00:56:16;99592.16;;;10.58;79.36
75555;BME280;66087;53.126;17.960;2023-04-25T00:58:42;99592.78;;;10.53;79.43
75555;BME280;66087;53.126;17.960;2023-04-25T01:01:10;99589.30;;;10.53;79.61
75555;BME280;66087;53.126;17.960;2023-04-25T01:03:38;99587.75;;;10.50;79.53
75555;BME280;66087;53.126;17.960;2023-04-25T01:06:10;99594.56;;;10.51;79.12
75555;BME280;66087;53.126;17.960;2023-04-25T01:08:38;99593.77;;;10.48;79.33
75555;BME280;66087;53.126;17.960;2023-04-25T01:11:05;99593.74;;;10.44;79.29
75555;BME280;66087;53.126;17.960;2023-04-25T01:13:35;99591.77;;;10.40;79.28
75555;BME280;66087;53.126;17.960;2023-04-25T01:16:02;99591.80;;;10.39;79.10
75555;BME280;66087;53.126;17.960;2023-04-25T01:18:30;99589.75;;;10.39;78.82
75555;BME280;66087;53.126;17.960;2023-04-25T01:23:37;99592.59;;;10.35;78.41
75555;BME280;66087;53.126;17.960;2023-04-25T01:26:06;99590.11;;;10.33;78.40
75555;BME280;66087;53.126;17.960;2023-04-25T01:28:33;99593.58;;;10.31;78.29
75555;BME280;66087;53.126;17.960;2023-04-25T01:31:19;99593.77;;;10.24;78.32
75555;BME280;66087;53.126;17.960;2023-04-25T01:33:45;99592.56;;;10.20;78.40
75555;BME280;66087;53.126;17.960;2023-04-25T01:36:12;99591.93;;;10.15;78.55
75555;BME280;66087;53.126;17.960;2023-04-25T01:39:00;99590.94;;;10.11;78.52
75555;BME280;66087;53.126;17.960;2023-04-25T01:41:27;99595.25;;;10.06;78.59
75555;BME280;66087;53.126;17.960;2023-04-25T01:43:53;99598.67;;;10.03;78.77
75555;BME280;66087;53.126;17.960;2023-04-25T01:46:19;99599.26;;;10.02;78.75
75555;BME280;66087;53.126;17.960;2023-04-25T01:48:46;99602.00;;;9.98;78.87
75555;BME280;66087;53.126;17.960;2023-04-25T01:51:12;99606.80;;;9.95;78.91
75555;BME280;66087;53.126;17.960;2023-04-25T01:53:39;99603.60;;;9.90;78.94
75555;BME280;66087;53.126;17.960;2023-04-25T01:56:05;99607.52;;;9.86;79.03
75555;BME280;66087;53.126;17.960;2023-04-25T01:58:34;99604.25;;;9.80;79.28
75555;BME280;66087;53.126;17.960;2023-04-25T02:01:13;99609.39;;;9.77;79.44
75555;BME280;66087;53.126;17.960;2023-04-25T02:04:08;99608.60;;;9.71;79.32
75555;BME280;66087;53.126;17.960;2023-04-25T02:06:36;99610.75;;;9.66;79.20
75555;BME280;66087;53.126;17.960;2023-04-25T02:09:02;99614.05;;;9.64;79.16
75555;BME280;66087;53.126;17.960;2023-04-25T02:11:27;99616.02;;;9.60;79.30
75555;BME280;66087;53.126;17.960;2023-04-25T02:14:13;99621.16;;;9.56;79.42
75555;BME280;66087;53.126;17.960;2023-04-25T02:16:45;99620.88;;;9.50;79.54
75555;BME280;66087;53.126;17.960;2023-04-25T02:19:12;99622.69;;;9.44;79.55
75555;BME280;66087;53.126;17.960;2023-04-25T02:21:38;99629.34;;;9.39;79.52
75555;BME280;66087;53.126;17.960;2023-04-25T02:24:04;99632.08;;;9.34;79.38
75555;BME280;66087;53.126;17.960;2023-04-25T02:26:30;99624.52;;;9.30;79.25
75555;BME280;66087;53.126;17.960;2023-04-25T02:28:57;99624.17;;;9.28;79.26
75555;BME280;66087;53.126;17.960;2023-04-25T02:31:23;99625.92;;;9.23;79.37
75555;BME280;66087;53.126;17.960;2023-04-25T02:33:50;99628.48;;;9.17;79.39
75555;BME280;66087;53.126;17.960;2023-04-25T02:36:16;99624.59;;;9.10;79.33
75555;BME280;66087;53.126;17.960;2023-04-25T02:38:42;99628.16;;;9.07;79.15
75555;BME280;66087;53.126;17.960;2023-04-25T02:41:07;99628.23;;;9.04;79.16
75555;BME280;66087;53.126;17.960;2023-04-25T02:43:33;99632.24;;;9.01;79.15
75555;BME280;66087;53.126;17.960;2023-04-25T02:46:00;99630.05;;;8.95;79.03
75555;BME280;66087;53.126;17.960;2023-04-25T02:48:26;99631.54;;;8.91;78.90
75555;BME280;66087;53.126;17.960;2023-04-25T02:50:52;99631.39;;;8.91;78.99
75555;BME280;66087;53.126;17.960;2023-04-25T02:53:19;99633.86;;;8.88;79.01
75555;BME280;66087;53.126;17.960;2023-04-25T02:55:48;99632.90;;;8.82;78.96
75555;BME280;66087;53.126;17.960;2023-04-25T02:58:15;99637.02;;;8.81;78.87
75555;BME280;66087;53.126;17.960;2023-04-25T03:00:45;99635.85;;;8.78;78.85
75555;BME280;66087;53.126;17.960;2023-04-25T03:03:11;99635.88;;;8.73;78.80
75555;BME280;66087;53.126;17.960;2023-04-25T03:05:37;99639.20;;;8.70;78.64
75555;BME280;66087;53.126;17.960;2023-04-25T03:08:03;99643.53;;;8.63;78.59
75555;BME280;66087;53.126;17.960;2023-04-25T03:10:30;99640.59;;;8.55;78.61
75555;BME280;66087;53.126;17.960;2023-04-25T03:12:58;99639.98;;;8.48;78.67
75555;BME280;66087;53.126;17.960;2023-04-25T03:15:25;99637.64;;;8.41;78.69
75555;BME280;66087;53.126;17.960;2023-04-25T03:17:52;99633.27;;;8.35;78.85
75555;BME280;66087;53.126;17.960;2023-04-25T03:20:18;99634.59;;;8.30;78.76
75555;BME280;66087;53.126;17.960;2023-04-25T03:22:45;99638.82;;;8.27;78.80
75555;BME280;66087;53.126;17.960;2023-04-25T03:25:11;99639.48;;;8.24;78.72
75555;BME280;66087;53.126;17.960;2023-04-25T03:27:37;99635.35;;;8.22;78.76
75555;BME280;66087;53.126;17.960;2023-04-25T03:30:04;99637.30;;;8.18;78.83
75555;BME280;66087;53.126;17.960;2023-04-25T03:32:30;99635.23;;;8.12;78.83
75555;BME280;66087;53.126;17.960;2023-04-25T03:34:56;99639.42;;;8.08;78.94
75555;BME280;66087;53.126;17.960;2023-04-25T03:37:22;99639.11;;;8.03;79.06
75555;BME280;66087;53.126;17.960;2023-04-25T03:39:48;99643.43;;;7.99;79.10
75555;BME280;66087;53.126;17.960;2023-04-25T03:42:15;99641.95;;;7.96;79.06
75555;BME280;66087;53.126;17.960;2023-04-25T03:44:43;99643.83;;;7.95;79.16
75555;BME280;66087;53.126;17.960;2023-04-25T03:47:09;99645.79;;;7.93;78.98
75555;BME280;66087;53.126;17.960;2023-04-25T03:49:36;99649.15;;;7.96;79.01
75555;BME280;66087;53.126;17.960;2023-04-25T03:52:04;99653.20;;;7.99;78.84
75555;BME280;66087;53.126;17.960;2023-04-25T03:54:35;99656.63;;;7.97;78.78
75555;BME280;66087;53.126;17.960;2023-04-25T03:57:05;99650.73;;;7.94;78.69
75555;BME280;66087;53.126;17.960;2023-04-25T03:59:33;99663.55;;;7.95;78.62
75555;BME280;66087;53.126;17.960;2023-04-25T04:01:59;99666.91;;;7.93;78.53
75555;BME280;66087;53.126;17.960;2023-04-25T04:04:25;99670.48;;;7.96;78.52
75555;BME280;66087;53.126;17.960;2023-04-25T04:06:53;99675.02;;;7.98;78.36
75555;BME280;66087;53.126;17.960;2023-04-25T04:09:25;99672.30;;;7.99;78.27
75555;BME280;66087;53.126;17.960;2023-04-25T04:11:54;99673.04;;;7.96;78.16
75555;BME280;66087;53.126;17.960;2023-04-25T04:14:20;99674.08;;;7.95;78.18
75555;BME280;66087;53.126;17.960;2023-04-25T04:16:48;99676.28;;;7.96;77.99
75555;BME280;66087;53.126;17.960;2023-04-25T04:19:14;99682.06;;;7.97;77.89
75555;BME280;66087;53.126;17.960;2023-04-25T04:21:44;99690.32;;;7.99;78.02
75555;BME280;66087;53.126;17.960;2023-04-25T04:24:10;99689.62;;;8.04;77.93
75555;BME280;66087;53.126;17.960;2023-04-25T04:26:48;99689.66;;;8.06;77.58
75555;BME280;66087;53.126;17.960;2023-04-25T04:29:24;99687.73;;;8.05;77.47
75555;BME280;66087;53.126;17.960;2023-04-25T04:32:03;99691.44;;;8.10;77.37
75555;BME280;66087;53.126;17.960;2023-04-25T04:34:30;99697.79;;;8.10;77.08
75555;BME280;66087;53.126;17.960;2023-04-25T04:36:57;99698.81;;;8.10;77.25
75555;BME280;66087;53.126;17.960;2023-04-25T04:39:23;99700.80;;;8.15;77.07
75555;BME280;66087;53.126;17.960;2023-04-25T04:41:59;99701.28;;;8.18;76.83
75555;BME280;66087;53.126;17.960;2023-04-25T04:44:38;99706.11;;;8.24;76.78
75555;BME280;66087;53.126;17.960;2023-04-25T04:47:17;99705.46;;;8.25;76.60
75555;BME280;66087;53.126;17.960;2023-04-25T04:49:57;99697.86;;;8.27;76.43
75555;BME280;66087;53.126;17.960;2023-04-25T04:52:31;99699.61;;;8.24;76.48
75555;BME280;66087;53.126;17.960;2023-04-25T04:55:08;99698.59;;;8.25;76.49
75555;BME280;66087;53.126;17.960;2023-04-25T04:57:44;99696.55;;;8.26;76.36
75555;BME280;66087;53.126;17.960;2023-04-25T05:00:16;99699.64;;;8.27;76.48
75555;BME280;66087;53.126;17.960;2023-04-25T05:02:52;99705.80;;;8.30;76.21
75555;BME280;66087;53.126;17.960;2023-04-25T05:05:29;99710.61;;;8.34;76.30
75555;BME280;66087;53.126;17.960;2023-04-25T05:08:13;99710.97;;;8.39;75.96
75555;BME280;66087;53.126;17.960;2023-04-25T05:10:52;99706.21;;;8.41;75.73
75555;BME280;66087;53.126;17.960;2023-04-25T05:13:33;99707.39;;;8.40;75.62
75555;BME280;66087;53.126;17.960;2023-04-25T05:16:09;99707.23;;;8.39;75.56
75555;BME280;66087;53.126;17.960;2023-04-25T05:19:15;99709.86;;;8.44;75.65
75555;BME280;66087;53.126;17.960;2023-04-25T05:21:50;99715.86;;;8.50;75.45
75555;BME280;66087;53.126;17.960;2023-04-25T05:24:26;99719.80;;;8.56;74.95
75555;BME280;66087;53.126;17.960;2023-04-25T05:27:25;99716.70;;;8.64;74.83
75555;BME280;66087;53.126;17.960;2023-04-25T05:30:07;99715.88;;;8.77;74.90
75555;BME280;66087;53.126;17.960;2023-04-25T05:32:47;99717.40;;;8.86;74.30
75555;BME280;66087;53.126;17.960;2023-04-25T05:35:14;99721.91;;;8.92;74.50
75555;BME280;66087;53.126;17.960;2023-04-25T05:37:44;99718.73;;;8.96;73.75
75555;BME280;66087;53.126;17.960;2023-04-25T05:40:33;99724.77;;;9.04;73.97
75555;BME280;66087;53.126;17.960;2023-04-25T05:43:13;99724.30;;;9.11;73.04
75555;BME280;66087;53.126;17.960;2023-04-25T05:45:49;99723.19;;;9.19;73.81
75555;BME280;66087;53.126;17.960;2023-04-25T05:48:30;99723.40;;;9.27;73.74
75555;BME280;66087;53.126;17.960;2023-04-25T05:51:00;99723.41;;;9.30;73.75
75555;BME280;66087;53.126;17.960;2023-04-25T05:53:37;99720.33;;;9.33;73.49
75555;BME280;66087;53.126;17.960;2023-04-25T05:56:24;99723.40;;;9.34;73.38
75555;BME280;66087;53.126;17.960;2023-04-25T05:58:55;99722.59;;;9.32;73.33
75555;BME280;66087;53.126;17.960;2023-04-25T06:01:22;99729.64;;;9.29;72.94
75555;BME280;66087;53.126;17.960;2023-04-25T06:03:49;99736.33;;;9.17;72.62
75555;BME280;66087;53.126;17.960;2023-04-25T06:06:16;99731.70;;;9.09;73.07
75555;BME280;66087;53.126;17.960;2023-04-25T06:08:42;99729.69;;;9.10;73.04
75555;BME280;66087;53.126;17.960;2023-04-25T06:11:13;99730.71;;;9.09;72.52
75555;BME280;66087;53.126;17.960;2023-04-25T06:13:39;99725.98;;;9.05;72.96
75555;BME280;66087;53.126;17.960;2023-04-25T06:16:07;99730.44;;;9.07;73.13
75555;BME280;66087;53.126;17.960;2023-04-25T06:18:33;99730.84;;;9.13;72.83
75555;BME280;66087;53.126;17.960;2023-04-25T06:21:20;99727.38;;;9.20;72.87
75555;BME280;66087;53.126;17.960;2023-04-25T06:23:52;99727.90;;;9.31;72.99
75555;BME280;66087;53.126;17.960;2023-04-25T06:26:22;99730.21;;;9.41;72.00
75555;BME280;66087;53.126;17.960;2023-04-25T06:28:49;99734.20;;;9.44;72.02
75555;BME280;66087;53.126;17.960;2023-04-25T06:31:15;99735.46;;;9.46;71.52
75555;BME280;66087;53.126;17.960;2023-04-25T06:33:43;99730.63;;;9.50;71.90
75555;BME280;66087;53.126;17.960;2023-04-25T06:36:29;99731.96;;;9.63;71.91
75555;BME280;66087;53.126;17.960;2023-04-25T06:39:01;99733.90;;;9.76;70.89
75555;BME280;66087;53.126;17.960;2023-04-25T06:41:26;99726.86;;;9.82;71.38
75555;BME280;66087;53.126;17.960;2023-04-25T06:43:56;99725.23;;;9.91;71.15
75555;BME280;66087;53.126;17.960;2023-04-25T06:46:29;99720.02;;;10.01;69.98
75555;BME280;66087;53.126;17.960;2023-04-25T06:48:57;99729.70;;;10.05;70.22
75555;BME280;66087;53.126;17.960;2023-04-25T06:51:43;99723.00;;;10.06;69.96
75555;BME280;66087;53.126;17.960;2023-04-25T06:54:10;99721.13;;;10.13;69.77
75555;BME280;66087;53.126;17.960;2023-04-25T06:56:41;99714.71;;;10.18;69.26
75555;BME280;66087;53.126;17.960;2023-04-25T06:59:13;99719.48;;;10.23;68.83
75555;BME280;66087;53.126;17.960;2023-04-25T07:01:41;99719.92;;;10.33;68.71
75555;BME280;66087;53.126;17.960;2023-04-25T07:04:11;99713.69;;;10.42;69.23
75555;BME280;66087;53.126;17.960;2023-04-25T07:06:46;99717.91;;;10.56;68.98
75555;BME280;66087;53.126;17.960;2023-04-25T07:09:17;99719.80;;;10.77;67.91
75555;BME280;66087;53.126;17.960;2023-04-25T07:11:45;99719.90;;;10.92;68.00
75555;BME280;66087;53.126;17.960;2023-04-25T07:14:12;99715.57;;;10.97;68.49
75555;BME280;66087;53.126;17.960;2023-04-25T07:16:41;99713.89;;;11.03;67.81
75555;BME280;66087;53.126;17.960;2023-04-25T07:19:08;99723.68;;;11.24;67.41
75555;BME280;66087;53.126;17.960;2023-04-25T07:21:35;99727.98;;;11.44;66.91
75555;BME280;66087;53.126;17.960;2023-04-25T07:24:05;99728.02;;;11.53;66.22
75555;BME280;66087;53.126;17.960;2023-04-25T07:26:54;99724.64;;;11.61;66.28
75555;BME280;66087;53.126;17.960;2023-04-25T07:29:29;99727.40;;;11.82;66.51
75555;BME280;66087;53.126;17.960;2023-04-25T07:31:58;99728.27;;;12.01;64.63
75555;BME280;66087;53.126;17.960;2023-04-25T07:34:24;99736.66;;;12.13;64.61
75555;BME280;66087;53.126;17.960;2023-04-25T07:36:50;99736.98;;;12.18;63.50
75555;BME280;66087;53.126;17.960;2023-04-25T07:39:16;99734.59;;;12.26;63.04
75555;BME280;66087;53.126;17.960;2023-04-25T07:41:43;99735.06;;;12.28;63.35
75555;BME280;66087;53.126;17.960;2023-04-25T07:44:14;99738.05;;;12.23;62.80
75555;BME280;66087;53.126;17.960;2023-04-25T07:46:40;99738.85;;;12.15;63.32
75555;BME280;66087;53.126;17.960;2023-04-25T07:49:06;99737.89;;;12.18;63.53
75555;BME280;66087;53.126;17.960;2023-04-25T07:51:32;99743.17;;;12.30;63.02
75555;BME280;66087;53.126;17.960;2023-04-25T07:54:03;99744.56;;;12.30;62.93
75555;BME280;66087;53.126;17.960;2023-04-25T07:56:34;99743.84;;;12.31;62.63
75555;BME280;66087;53.126;17.960;2023-04-25T07:59:01;99750.06;;;12.29;62.52
75555;BME280;66087;53.126;17.960;2023-04-25T08:01:34;99752.95;;;12.26;62.44
75555;BME280;66087;53.126;17.960;2023-04-25T08:04:04;99751.45;;;12.25;62.61
75555;BME280;66087;53.126;17.960;2023-04-25T08:06:47;99752.96;;;12.31;62.77
75555;BME280;66087;53.126;17.960;2023-04-25T08:09:18;99754.61;;;12.39;62.61
75555;BME280;66087;53.126;17.960;2023-04-25T08:11:48;99754.38;;;12.41;62.41
75555;BME280;66087;53.126;17.960;2023-04-25T08:14:16;99753.27;;;12.47;62.23
75555;BME280;66087;53.126;17.960;2023-04-25T08:16:44;99755.45;;;12.58;62.10
75555;BME280;66087;53.126;17.960;2023-04-25T08:19:10;99758.97;;;12.75;62.21
75555;BME280;66087;53.126;17.960;2023-04-25T08:21:38;99758.70;;;12.98;61.81
75555;BME280;66087;53.126;17.960;2023-04-25T08:24:11;99759.23;;;13.24;61.24
75555;BME280;66087;53.126;17.960;2023-04-25T08:26:38;99762.26;;;13.41;60.92
75555;BME280;66087;53.126;17.960;2023-04-25T08:29:06;99768.55;;;13.59;60.92
75555;BME280;66087;53.126;17.960;2023-04-25T08:31:32;99765.23;;;13.76;60.20
75555;BME280;66087;53.126;17.960;2023-04-25T08:34:00;99769.46;;;13.85;59.76
75555;BME280;66087;53.126;17.960;2023-04-25T08:36:35;99769.98;;;13.92;59.99
75555;BME280;66087;53.126;17.960;2023-04-25T08:39:01;99777.33;;;13.89;60.04
75555;BME280;66087;53.126;17.960;2023-04-25T08:41:35;99772.65;;;13.80;59.75
75555;BME280;66087;53.126;17.960;2023-04-25T08:44:03;99772.88;;;13.64;58.83
75555;BME280;66087;53.126;17.960;2023-04-25T08:46:30;99770.88;;;13.50;59.69
75555;BME280;66087;53.126;17.960;2023-04-25T08:49:17;99771.68;;;13.39;59.44
75555;BME280;66087;53.126;17.960;2023-04-25T08:51:47;99771.94;;;13.24;59.18
75555;BME280;66087;53.126;17.960;2023-04-25T08:54:14;99774.86;;;13.21;59.63
75555;BME280;66087;53.126;17.960;2023-04-25T08:56:44;99771.70;;;13.24;58.87
75555;BME280;66087;53.126;17.960;2023-04-25T08:59:12;99768.58;;;13.32;59.59
75555;BME280;66087;53.126;17.960;2023-04-25T09:01:39;99771.38;;;13.55;59.04
75555;BME280;66087;53.126;17.960;2023-04-25T09:04:06;99780.69;;;13.78;58.58
75555;BME280;66087;53.126;17.960;2023-04-25T09:06:33;99782.30;;;13.97;57.63
75555;BME280;66087;53.126;17.960;2023-04-25T09:09:03;99783.73;;;14.01;57.15
75555;BME280;66087;53.126;17.960;2023-04-25T09:11:32;99787.45;;;14.06;56.75
75555;BME280;66087;53.126;17.960;2023-04-25T09:14:16;99794.77;;;14.18;57.12
75555;BME280;66087;53.126;17.960;2023-04-25T09:17:00;99795.31;;;14.33;55.89
75555;BME280;66087;53.126;17.960;2023-04-25T09:19:36;99787.95;;;14.41;55.63
75555;BME280;66087;53.126;17.960;2023-04-25T09:22:07;99787.08;;;14.58;55.95
75555;BME280;66087;53.126;17.960;2023-04-25T09:24:38;99796.60;;;14.68;54.45
75555;BME280;66087;53.126;17.960;2023-04-25T09:27:09;99792.59;;;14.58;53.82
75555;BME280;66087;53.126;17.960;2023-04-25T09:29:38;99796.02;;;14.56;54.27
75555;BME280;66087;53.126;17.960;2023-04-25T09:32:22;99795.65;;;14.52;54.30
75555;BME280;66087;53.126;17.960;2023-04-25T09:34:55;99794.44;;;14.60;54.16
75555;BME280;66087;53.126;17.960;2023-04-25T09:37:30;99794.17;;;14.68;53.79
75555;BME280;66087;53.126;17.960;2023-04-25T09:40:06;99796.95;;;14.70;54.11
75555;BME280;66087;53.126;17.960;2023-04-25T09:42:41;99800.32;;;14.81;53.18
75555;BME280;66087;53.126;17.960;2023-04-25T09:45:12;99803.96;;;14.96;53.90
75555;BME280;66087;53.126;17.960;2023-04-25T09:47:45;99798.75;;;15.01;53.20
75555;BME280;66087;53.126;17.960;2023-04-25T09:50:15;99805.04;;;14.90;52.10
75555;BME280;66087;53.126;17.960;2023-04-25T09:52:43;99804.08;;;14.63;52.40
75555;BME280;66087;53.126;17.960;2023-04-25T09:55:18;99809.20;;;14.66;52.67
75555;BME280;66087;53.126;17.960;2023-04-25T09:58:05;99811.63;;;14.83;52.07
75555;BME280;66087;53.126;17.960;2023-04-25T10:00:34;99813.67;;;14.93;52.76
75555;BME280;66087;53.126;17.960;2023-04-25T10:03:12;99815.42;;;15.01;52.69
75555;BME280;66087;53.126;17.960;2023-04-25T10:05:51;99820.30;;;14.99;51.33
75555;BME280;66087;53.126;17.960;2023-04-25T10:08:22;99812.14;;;14.91;51.78
75555;BME280;66087;53.126;17.960;2023-04-25T10:10:52;99804.42;;;14.89;52.43
75555;BME280;66087;53.126;17.960;2023-04-25T10:13:18;99816.00;;;15.02;51.48
75555;BME280;66087;53.126;17.960;2023-04-25T10:15:53;99820.69;;;15.07;51.21
75555;BME280;66087;53.126;17.960;2023-04-25T10:18:26;99818.92;;;15.01;50.82
75555;BME280;66087;53.126;17.960;2023-04-25T10:21:05;99828.78;;;14.99;50.25
75555;BME280;66087;53.126;17.960;2023-04-25T10:23:38;99825.26;;;14.92;50.97
75555;BME280;66087;53.126;17.960;2023-04-25T10:26:08;99824.80;;;14.96;51.54
75555;BME280;66087;53.126;17.960;2023-04-25T10:29:03;99825.45;;;15.11;51.37
75555;BME280;66087;53.126;17.960;2023-04-25T10:31:30;99822.88;;;15.26;51.41
75555;BME280;66087;53.126;17.960;2023-04-25T10:33:59;99827.84;;;15.47;50.38
75555;BME280;66087;53.126;17.960;2023-04-25T10:36:31;99825.30;;;15.60;50.62
75555;BME280;66087;53.126;17.960;2023-04-25T10:39:03;99826.83;;;15.72;49.59
75555;BME280;66087;53.126;17.960;2023-04-25T10:41:56;99820.91;;;15.74;49.52
75555;BME280;66087;53.126;17.960;2023-04-25T10:44:37;99820.77;;;15.81;49.36
75555;BME280;66087;53.126;17.960;2023-04-25T10:47:07;99825.76;;;15.86;49.36
75555;BME280;66087;53.126;17.960;2023-04-25T10:49:41;99825.46;;;15.79;49.11
75555;BME280;66087;53.126;17.960;2023-04-25T10:52:14;99825.34;;;15.62;49.26
75555;BME280;66087;53.126;17.960;2023-04-25T10:54:42;99825.44;;;15.48;49.52
75555;BME280;66087;53.126;17.960;2023-04-25T10:57:34;99830.77;;;15.42;49.28
75555;BME280;66087;53.126;17.960;2023-04-25T11:02:43;99831.86;;;15.14;48.75
75555;BME280;66087;53.126;17.960;2023-04-25T11:05:22;99831.66;;;15.07;48.21
75555;BME280;66087;53.126;17.960;2023-04-25T11:07:51;99822.66;;;15.03;48.16
75555;BME280;66087;53.126;17.960;2023-04-25T11:10:18;99827.48;;;15.05;49.23
75555;BME280;66087;53.126;17.960;2023-04-25T11:12:45;99829.23;;;15.09;49.22
75555;BME280;66087;53.126;17.960;2023-04-25T11:15:12;99827.41;;;15.00;49.41
75555;BME280;66087;53.126;17.960;2023-04-25T11:17:39;99832.10;;;14.89;49.67
75555;BME280;66087;53.126;17.960;2023-04-25T11:20:07;99833.77;;;14.70;49.40
75555;BME280;66087;53.126;17.960;2023-04-25T11:22:38;99838.77;;;14.43;49.79
75555;BME280;66087;53.126;17.960;2023-04-25T11:25:08;99837.27;;;14.21;49.93
75555;BME280;66087;53.126;17.960;2023-04-25T11:27:37;99840.17;;;14.06;50.27
75555;BME280;66087;53.126;17.960;2023-04-25T11:30:12;99841.43;;;13.96;50.28
75555;BME280;66087;53.126;17.960;2023-04-25T11:32:41;99838.39;;;13.88;50.52
75555;BME280;66087;53.126;17.960;2023-04-25T11:35:12;99839.05;;;13.95;50.70
75555;BME280;66087;53.126;17.960;2023-04-25T11:37:39;99836.20;;;14.19;50.53
75555;BME280;66087;53.126;17.960;2023-04-25T11:40:07;99842.48;;;14.40;49.46
75555;BME280;66087;53.126;17.960;2023-04-25T11:42:38;99842.49;;;14.59;49.83
75555;BME280;66087;53.126;17.960;2023-04-25T11:45:07;99840.42;;;14.83;49.62
75555;BME280;66087;53.126;17.960;2023-04-25T11:47:33;99837.95;;;14.94;49.62
75555;BME280;66087;53.126;17.960;2023-04-25T11:50:01;99843.29;;;15.06;49.07
75555;BME280;66087;53.126;17.960;2023-04-25T11:55:16;99845.07;;;15.13;48.43
75555;BME280;66087;53.126;17.960;2023-04-25T11:57:47;99844.02;;;15.20;48.56
75555;BME280;66087;53.126;17.960;2023-04-25T12:00:18;99842.27;;;15.35;48.33
75555;BME280;66087;53.126;17.960;2023-04-25T12:02:51;99842.14;;;15.52;48.23
75555;BME280;66087;53.126;17.960;2023-04-25T12:05:18;99846.67;;;15.74;47.86
75555;BME280;66087;53.126;17.960;2023-04-25T12:07:46;99842.95;;;15.99;47.50
75555;BME280;66087;53.126;17.960;2023-04-25T12:10:14;99851.64;;;16.33;46.22
75555;BME280;66087;53.126;17.960;2023-04-25T12:12:43;99846.05;;;16.54;45.84
75555;BME280;66087;53.126;17.960;2023-04-25T12:15:17;99847.10;;;16.75;45.31
75555;BME280;66087;53.126;17.960;2023-04-25T12:17:46;99849.03;;;16.77;45.51
75555;BME280;66087;53.126;17.960;2023-04-25T12:20:17;99849.65;;;16.81;45.26
75555;BME280;66087;53.126;17.960;2023-04-25T12:22:45;99850.69;;;16.88;45.50
75555;BME280;66087;53.126;17.960;2023-04-25T12:25:34;99852.25;;;16.92;44.61
75555;BME280;66087;53.126;17.960;2023-04-25T12:28:11;99844.73;;;16.90;43.88
75555;BME280;66087;53.126;17.960;2023-04-25T12:33:25;99844.83;;;16.77;44.69
75555;BME280;66087;53.126;17.960;2023-04-25T12:35:53;99844.54;;;16.75;44.94
75555;BME280;66087;53.126;17.960;2023-04-25T12:38:28;99848.39;;;16.78;43.75
75555;BME280;66087;53.126;17.960;2023-04-25T12:41:35;99847.80;;;16.68;43.89
75555;BME280;66087;53.126;17.960;2023-04-25T12:44:01;99850.86;;;16.71;44.18
75555;BME280;66087;53.126;17.960;2023-04-25T12:46:27;99847.70;;;17.05;44.49
75555;BME280;66087;53.126;17.960;2023-04-25T12:48:54;99855.07;;;17.57;44.00
75555;BME280;66087;53.126;17.960;2023-04-25T12:51:21;99846.59;;;17.96;43.52
75555;BME280;66087;53.126;17.960;2023-04-25T12:53:51;99841.43;;;18.09;42.78
75555;BME280;66087;53.126;17.960;2023-04-25T12:56:18;99848.34;;;18.13;43.33
75555;BME280;66087;53.126;17.960;2023-04-25T12:58:44;99850.67;;;18.05;42.76
75555;BME280;66087;53.126;17.960;2023-04-25T13:01:10;99845.11;;;17.71;42.16
75555;BME280;66087;53.126;17.960;2023-04-25T13:03:37;99841.92;;;17.28;43.23
75555;BME280;66087;53.126;17.960;2023-04-25T13:06:15;99838.45;;;16.93;43.51
75555;BME280;66087;53.126;17.960;2023-04-25T13:08:41;99837.18;;;16.68;43.81
75555;BME280;66087;53.126;17.960;2023-04-25T13:11:08;99838.92;;;16.43;43.81
75555;BME280;66087;53.126;17.960;2023-04-25T13:13:35;99841.41;;;16.13;44.39
75555;BME280;66087;53.126;17.960;2023-04-25T13:16:03;99842.24;;;15.87;44.50
75555;BME280;66087;53.126;17.960;2023-04-25T13:18:49;99845.15;;;15.57;44.90
75555;BME280;66087;53.126;17.960;2023-04-25T13:21:16;99840.25;;;15.35;45.43
75555;BME280;66087;53.126;17.960;2023-04-25T13:23:42;99845.76;;;15.18;45.66